Jose Valencia

Scout - Universidad de Chile
20 Feb 2028
Sonntag
Verarbeitung

Persönlichkeit

Anpassungsfähigkeit (20) Ehrgeiz (13) Kontroverse (9) Loyalität (7) Druck (20) Professionalität (15) Fairness (6) Temperament (1)

Profil

Trainerstil Demokratisch
Lizenz Kontinentale B
Entschlossenheit 8
Menschenführung 6
Motivation 7
Disziplin 5
Arbeitszufriedenheit
77%
Ermüdung
0%
Rolle Scout
Gehalt 25.5K p/W
Vertrag 14.03.2028

Leistung

Verhalten Gut
Trainingseffektivität
40%
Spielerentwicklung
70%
Verletzungsprävention
25%
Taktische Umsetzung
65%

Letzte Ereignisse

Vertragsverhandlung begonnen jetzt
Vertragsverhandlung begonnen jetzt
Vertragsverhandlung begonnen jetzt
Vertragsverhandlung begonnen jetzt
Vertragsverhandlung begonnen 7T her
Vertragsverhandlung begonnen 7T her
Vertragsverhandlung begonnen 7T her
Vertragsverhandlung begonnen 7T her

Aktuell beobachtet

63
Spieler Verein Status Fähigkeit Vertrauen Beobachtet Zuletzt beobachtet Letzte Stimme
Yury Oyarzo Racing Aktiv 87 / 102 40% 3 27.12.2027 -
Cristian Morales Iquique Aktiv 88 / 92 40% 1 27.12.2027 -
Felipe Faúndez O'Higgins Aktiv 102 / 106 40% 1 20.12.2027 -
Fabián Correa Barranquilla Aktiv 94 / 90 40% 1 20.12.2027 -
Juan Manuel Villalba Estudiantes Aktiv 114 / 126 40% 1 20.12.2027 -
Victor Ehibe Barau Aktiv 90 / 97 40% 1 13.12.2027 -
Agustín Medina River Plate Aktiv 112 / 125 40% 1 13.12.2027 -
Mohammed Habib Sarwari Kariobangi Sharks Aktiv 81 / 76 40% 1 13.12.2027 -
Tobías Andrada River Plate Aktiv 117 / 130 40% 1 08.12.2027 -
Daniel Banjaqui Benfica Aktiv 126 / 135 40% 1 07.12.2027 -
Davinchi Getafe Aktiv 122 / 126 40% 1 07.12.2027 -
Tiago Gordillo San Miguel Aktiv 82 / 93 40% 1 05.12.2027 -
Nicolas America Mineiro Aktiv 111 / 118 40% 1 05.12.2027 -
Lucas Pyziak Vélez Aktiv 107 / 112 40% 1 05.12.2027 -
Aytor Herrera Llaneros Aktiv 78 / 84 40% 1 05.12.2027 -
Enzo Cabrera Danubio Aktiv 116 / 113 40% 1 03.12.2027 -
Agustín Alaniz Juventud Aktiv 115 / 111 40% 1 03.12.2027 -
Alan Velasco Boca Juniors Aktiv 130 / 134 40% 1 02.12.2027 -
Leonardo Campana New England Revolution Aktiv 135 / 124 40% 1 02.12.2027 -
Hian Rincón Once Caldas Aktiv 92 / 95 40% 1 02.12.2027 -
Jhoan Merino Emirates Club Aktiv 98 / 94 40% 1 02.12.2027 -
Frankie Westfield Philadelphia Union Aktiv 103 / 115 40% 1 02.12.2027 -
Alassana Jatta Notts County Verloren 105 / 105 66% 1 01.12.2027 Befürworten
Moussa Diaby Al-Ittihad Verloren 147 / 147 68% 1 01.12.2027 -
Adrian Benedyczak Fenerbahce Aktiv 123 / 123 69% 1 01.12.2027 Befürworten
Talisca Fenerbahce Verloren 142 / 142 67% 1 01.12.2027 Befürworten
Joshua King Al-Khaleej Aktiv 130 / 130 66% 1 01.12.2027 Befürworten
Luis Milla Como Aktiv 152 / 145 40% 3 19.07.2027 -
Pedro Henrique Shakhtar Aktiv 128 / 129 40% 1 19.07.2027 -
Lukáš Provod Slavia Prague Aktiv 139 / 141 40% 2 18.07.2027 -
Javi Rueda Celta Aktiv 137 / 132 40% 2 18.07.2027 -
Josh Cullen Burnley Aktiv 148 / 133 40% 1 18.07.2027 -
Teboho Mokoena Mamelodi Sundowns Aktiv 143 / 137 40% 2 17.07.2027 -
Lukas Nmecha Leeds United Aktiv 139 / 134 40% 1 17.07.2027 -
Mario Pašalić Atalanta Aktiv 146 / 147 40% 5 16.07.2027 -
Mattia Zaccagni Lazio Aktiv 149 / 146 40% 1 15.07.2027 -
Adrián Bernabé Parma Aktiv 146 / 138 40% 1 15.07.2027 -
Emam Ashour Al Ahly Aktiv 143 / 138 40% 2 14.07.2027 -
Che Adams Torino Aktiv 145 / 133 40% 1 14.07.2027 -
Toma Bašić Venezia Aktiv 130 / 140 40% 2 13.07.2027 -
Florian Grillitsch Frosinone Aktiv 126 / 143 40% 2 12.07.2027 -
Armando Dobra Chesterfield Aktiv 118 / 112 40% 1 12.07.2027 -
Domenico Berardi Sassuolo Aktiv 136 / 143 40% 3 10.07.2027 -
Stephen Eustáquio Swansea City Aktiv 146 / 138 40% 1 10.07.2027 -
Aarón Genoa Aktiv 130 / 137 40% 2 09.07.2027 -
Mattéo Tramoni Pisa Aktiv 140 / 132 40% 1 05.07.2027 -
Hwang Hee-Chan Wolverhampton Aktiv 140 / 141 40% 1 05.07.2027 -
Giovane Napoli Aktiv 145 / 140 40% 2 02.07.2027 -
Hamdan Abdulrahman Al Shabab Aktiv 153 / 145 40% 1 01.07.2027 -
Gonzalo Plata Dinamo Moscow Aktiv 142 / 142 40% 1 01.07.2027 -
Idrissa Touré Monza Aktiv 150 / 142 40% 1 01.07.2027 -
Dany Mota Monza Aktiv 146 / 139 40% 3 30.06.2027 -
Tyreece Campbell Charlton Athletic Aktiv 125 / 128 40% 1 28.06.2027 -
Cristian Shpendi Cesena Aktiv 148 / 127 40% 2 27.06.2027 -
Gorka Guruzeta Athletic Bilbao Aktiv 145 / 149 40% 1 27.06.2027 -
Zizo Al Ahly Aktiv 126 / 126 40% 1 25.06.2027 -
Brenden Aaronson Leeds United Aktiv 145 / 133 40% 1 25.06.2027 -
Malcom Al Jazira Aktiv 160 / 142 40% 1 19.06.2027 -
Andrea Colpani Monza Aktiv 132 / 134 40% 1 14.06.2027 -
Ritsu Doan Barcelona Aktiv 148 / 148 66% 1 01.06.2027 Befürworten
Cheveyo Tsawa Club Brugge Aktiv 108 / 129 40% 1 01.06.2027 -
Jaydee Canvot Crystal Palace Aktiv 130 / 135 40% 1 01.06.2027 -
Cian Ashford Cardiff City Aktiv 111 / 124 40% 1 22.12.2026 -